UAL2275 KSTL-KEWR
Flight info
| Callsign | UAL2275 |
|---|---|
| Flight time | 1h 52m |
| Altitude | 37000 |
| Route | JHART7 RINTE DORET J584 SLT FQM3 |
| Aircraft | A320/M-VGDW/C |
Departure
| Time | 2026-05-04 17:56 |
|---|---|
| Airport | St. Louis Lambert International Airport (KSTL) |
Arrival
| Time | 2026-05-04 19:48 |
|---|---|
| Airport | Newark Liberty International Airport (KEWR) |
| Time | Latitude | Longitude | Altitude | Speed | Heading |
|---|---|---|---|---|---|
| 2026-05-04 17:31 | 38.74512 | -90.36715 | 556 ft | 0 kts | 252° |
| 2026-05-04 17:45 | 38.74514 | -90.36708 | 563 ft | 4 kts | 252° |
| 2026-05-04 17:45 | 38.74522 | -90.36675 | 555 ft | 4 kts | 252° |
| 2026-05-04 17:45 | 38.74530 | -90.36644 | 562 ft | 4 kts | 231° |
| 2026-05-04 17:45 | 38.74547 | -90.36634 | 555 ft | 4 kts | 139° |
| 2026-05-04 17:46 | 38.74559 | -90.36654 | 555 ft | 4 kts | 122° |
| 2026-05-04 17:46 | 38.74569 | -90.36673 | 555 ft | 0 kts | 122° |
| 2026-05-04 17:49 | 38.74568 | -90.36672 | 555 ft | 1 kts | 122° |
| 2026-05-04 17:49 | 38.74563 | -90.36660 | 555 ft | 2 kts | 122° |
| 2026-05-04 17:50 | 38.74552 | -90.36639 | 555 ft | 4 kts | 122° |
| 2026-05-04 17:50 | 38.74534 | -90.36602 | 555 ft | 7 kts | 122° |
| 2026-05-04 17:50 | 38.74502 | -90.36538 | 556 ft | 10 kts | 122° |
| 2026-05-04 17:50 | 38.74463 | -90.36458 | 559 ft | 11 kts | 122° |
| 2026-05-04 17:51 | 38.74420 | -90.36370 | 567 ft | 12 kts | 122° |
| 2026-05-04 17:51 | 38.74369 | -90.36268 | 564 ft | 15 kts | 122° |
| 2026-05-04 17:51 | 38.74314 | -90.36156 | 568 ft | 15 kts | 122° |
| 2026-05-04 17:51 | 38.74256 | -90.36037 | 573 ft | 17 kts | 122° |
| 2026-05-04 17:52 | 38.74188 | -90.35900 | 575 ft | 19 kts | 122° |
| 2026-05-04 17:52 | 38.74116 | -90.35754 | 576 ft | 19 kts | 122° |
| 2026-05-04 17:52 | 38.74045 | -90.35618 | 574 ft | 17 kts | 125° |
| 2026-05-04 17:52 | 38.73985 | -90.35496 | 580 ft | 16 kts | 122° |
| 2026-05-04 17:53 | 38.73918 | -90.35359 | 579 ft | 20 kts | 122° |
| 2026-05-04 17:53 | 38.73839 | -90.35199 | 586 ft | 21 kts | 121° |
| 2026-05-04 17:53 | 38.73768 | -90.35057 | 590 ft | 17 kts | 122° |
| 2026-05-04 17:53 | 38.73713 | -90.34944 | 594 ft | 13 kts | 122° |
| 2026-05-04 17:54 | 38.73673 | -90.34864 | 595 ft | 10 kts | 122° |
| 2026-05-04 17:54 | 38.73656 | -90.34781 | 596 ft | 9 kts | 71° |
| 2026-05-04 17:54 | 38.73699 | -90.34732 | 595 ft | 8 kts | 31° |
| 2026-05-04 17:54 | 38.73765 | -90.34685 | 595 ft | 11 kts | 20° |
| 2026-05-04 17:55 | 38.73819 | -90.34731 | 595 ft | 11 kts | 301° |
| 2026-05-04 17:55 | 38.73944 | -90.34990 | 589 ft | 67 kts | 302° |
| 2026-05-04 17:55 | 38.74304 | -90.35712 | 579 ft | 122 kts | 302° |
| 2026-05-04 17:55 | 38.74840 | -90.36801 | 565 ft | 165 kts | 303° |
| 2026-05-04 17:56 | 38.75513 | -90.38067 | 997 ft | 173 kts | 310° |
| 2026-05-04 17:56 | 38.76532 | -90.38908 | 1633 ft | 176 kts | 334° |
| 2026-05-04 17:56 | 38.77678 | -90.39477 | 2268 ft | 178 kts | 338° |
| 2026-05-04 17:56 | 38.78911 | -90.40034 | 2591 ft | 200 kts | 336° |
| 2026-05-04 17:57 | 38.80309 | -90.40673 | 2841 ft | 225 kts | 335° |
| 2026-05-04 17:57 | 38.81879 | -90.41348 | 3112 ft | 254 kts | 343° |
| 2026-05-04 17:57 | 38.83732 | -90.41283 | 3562 ft | 280 kts | 12° |
| 2026-05-04 17:57 | 38.85503 | -90.40125 | 4296 ft | 294 kts | 39° |
| 2026-05-04 17:58 | 38.86718 | -90.38056 | 5182 ft | 300 kts | 68° |
| 2026-05-04 17:58 | 38.87099 | -90.35438 | 6059 ft | 302 kts | 96° |
| 2026-05-04 17:58 | 38.86881 | -90.32735 | 6890 ft | 307 kts | 99° |
| 2026-05-04 17:58 | 38.86625 | -90.29999 | 7723 ft | 310 kts | 99° |
| 2026-05-04 17:59 | 38.86364 | -90.27235 | 8548 ft | 313 kts | 99° |
| 2026-05-04 17:59 | 38.86104 | -90.24448 | 9349 ft | 316 kts | 99° |
| 2026-05-04 17:59 | 38.85571 | -90.18714 | 10456 ft | 341 kts | 99° |
| 2026-05-04 18:00 | 38.85280 | -90.15632 | 10628 ft | 363 kts | 99° |
| 2026-05-04 18:00 | 38.84977 | -90.12317 | 10764 ft | 386 kts | 98° |
| 2026-05-04 18:00 | 38.84660 | -90.08821 | 11130 ft | 399 kts | 98° |
| 2026-05-04 18:00 | 38.84338 | -90.05253 | 11725 ft | 405 kts | 98° |
| 2026-05-04 18:01 | 38.84014 | -90.01649 | 12361 ft | 409 kts | 98° |
| 2026-05-04 18:01 | 38.83682 | -89.98013 | 12967 ft | 413 kts | 98° |
| 2026-05-04 18:01 | 38.83343 | -89.94331 | 13558 ft | 417 kts | 98° |
| 2026-05-04 18:02 | 38.82649 | -89.86876 | 14714 ft | 425 kts | 98° |
| 2026-05-04 18:02 | 38.82295 | -89.83095 | 15283 ft | 431 kts | 99° |
| 2026-05-04 18:02 | 38.81933 | -89.79256 | 15928 ft | 435 kts | 98° |
| 2026-05-04 18:02 | 38.81568 | -89.75411 | 16485 ft | 439 kts | 98° |
| 2026-05-04 18:03 | 38.81210 | -89.71587 | 17047 ft | 436 kts | 97° |
| 2026-05-04 18:03 | 38.80843 | -89.67692 | 17488 ft | 444 kts | 97° |
| 2026-05-04 18:03 | 38.80455 | -89.63735 | 18075 ft | 449 kts | 98° |
| 2026-05-04 18:03 | 38.80064 | -89.59741 | 18666 ft | 453 kts | 97° |
| 2026-05-04 18:04 | 38.79681 | -89.55720 | 19249 ft | 455 kts | 97° |
| 2026-05-04 18:04 | 38.79455 | -89.51656 | 19757 ft | 459 kts | 90° |
| 2026-05-04 18:04 | 38.80224 | -89.43486 | 20692 ft | 465 kts | 79° |
| 2026-05-04 18:05 | 38.80751 | -89.39441 | 21105 ft | 467 kts | 79° |
| 2026-05-04 18:05 | 38.81273 | -89.35342 | 21450 ft | 467 kts | 79° |
| 2026-05-04 18:05 | 38.81794 | -89.31205 | 21814 ft | 471 kts | 79° |
| 2026-05-04 18:05 | 38.82318 | -89.27048 | 22213 ft | 474 kts | 79° |
| 2026-05-04 18:06 | 38.83377 | -89.18673 | 22952 ft | 478 kts | 79° |
| 2026-05-04 18:06 | 38.83910 | -89.14459 | 23285 ft | 479 kts | 79° |
| 2026-05-04 18:06 | 38.84443 | -89.10228 | 23611 ft | 481 kts | 79° |
| 2026-05-04 18:07 | 38.84976 | -89.05975 | 23943 ft | 484 kts | 79° |
| 2026-05-04 18:07 | 38.85508 | -89.01704 | 24293 ft | 485 kts | 79° |
| 2026-05-04 18:07 | 38.86036 | -88.97462 | 24633 ft | 488 kts | 79° |
| 2026-05-04 18:07 | 38.86573 | -88.93146 | 24982 ft | 491 kts | 79° |
| 2026-05-04 18:08 | 38.87106 | -88.88801 | 25344 ft | 492 kts | 79° |
| 2026-05-04 18:08 | 38.87637 | -88.84462 | 25651 ft | 494 kts | 79° |
| 2026-05-04 18:08 | 38.88174 | -88.80092 | 25955 ft | 496 kts | 79° |
| 2026-05-04 18:08 | 38.88711 | -88.75716 | 26240 ft | 498 kts | 79° |
| 2026-05-04 18:09 | 38.89777 | -88.66916 | 26881 ft | 499 kts | 79° |
| 2026-05-04 18:09 | 38.90837 | -88.58190 | 27693 ft | 497 kts | 79° |
| 2026-05-04 18:10 | 38.91365 | -88.53808 | 28135 ft | 496 kts | 79° |
| 2026-05-04 18:10 | 38.91930 | -88.49448 | 28562 ft | 493 kts | 75° |
| 2026-05-04 18:10 | 38.92862 | -88.45228 | 28970 ft | 490 kts | 67° |
| 2026-05-04 18:10 | 38.94019 | -88.41119 | 29378 ft | 489 kts | 67° |
| 2026-05-04 18:11 | 38.95178 | -88.37013 | 29794 ft | 488 kts | 67° |
| 2026-05-04 18:11 | 38.96328 | -88.32928 | 30207 ft | 486 kts | 67° |
| 2026-05-04 18:11 | 38.97460 | -88.28905 | 30587 ft | 485 kts | 67° |
| 2026-05-04 18:11 | 38.98621 | -88.24768 | 30989 ft | 484 kts | 67° |
| 2026-05-04 18:12 | 38.99746 | -88.20746 | 31378 ft | 483 kts | 67° |
| 2026-05-04 18:12 | 39.00878 | -88.16681 | 31762 ft | 483 kts | 67° |
| 2026-05-04 18:12 | 39.02004 | -88.12624 | 32148 ft | 482 kts | 67° |
| 2026-05-04 18:12 | 39.03130 | -88.08572 | 32525 ft | 480 kts | 67° |
| 2026-05-04 18:13 | 39.04254 | -88.04527 | 32880 ft | 480 kts | 67° |
| 2026-05-04 18:13 | 39.05377 | -88.00487 | 33240 ft | 479 kts | 67° |
| 2026-05-04 18:13 | 39.07606 | -87.92429 | 33906 ft | 478 kts | 68° |
| 2026-05-04 18:14 | 39.08713 | -87.88400 | 34256 ft | 477 kts | 67° |
| 2026-05-04 18:14 | 39.09818 | -87.84376 | 34598 ft | 477 kts | 67° |
| 2026-05-04 18:14 | 39.10927 | -87.80356 | 34917 ft | 477 kts | 67° |
| 2026-05-04 18:15 | 39.13142 | -87.72331 | 35562 ft | 475 kts | 67° |
| 2026-05-04 18:15 | 39.15340 | -87.64303 | 36145 ft | 475 kts | 68° |
| 2026-05-04 18:15 | 39.16417 | -87.60337 | 36407 ft | 475 kts | 68° |
| 2026-05-04 18:16 | 39.17505 | -87.56325 | 36659 ft | 475 kts | 68° |
| 2026-05-04 18:16 | 39.18596 | -87.52302 | 36803 ft | 475 kts | 68° |
| 2026-05-04 18:16 | 39.19691 | -87.48259 | 36838 ft | 480 kts | 68° |
| 2026-05-04 18:17 | 39.23010 | -87.36053 | 36827 ft | 481 kts | 68° |
| 2026-05-04 18:18 | 39.26306 | -87.23826 | 36842 ft | 480 kts | 68° |
| 2026-05-04 18:18 | 39.28479 | -87.15725 | 36842 ft | 481 kts | 68° |
| 2026-05-04 18:19 | 39.31744 | -87.03474 | 36857 ft | 481 kts | 68° |
| 2026-05-04 18:19 | 39.33928 | -86.95302 | 36871 ft | 481 kts | 68° |
| 2026-05-04 18:20 | 39.36107 | -86.87110 | 36879 ft | 482 kts | 68° |
| 2026-05-04 18:20 | 39.38259 | -86.78955 | 36890 ft | 482 kts | 68° |
| 2026-05-04 18:21 | 39.40417 | -86.70764 | 36897 ft | 482 kts | 68° |
| 2026-05-04 18:21 | 39.42577 | -86.62561 | 36900 ft | 481 kts | 68° |
| 2026-05-04 18:22 | 39.44722 | -86.54363 | 36900 ft | 481 kts | 68° |
| 2026-05-04 18:22 | 39.46862 | -86.46163 | 36892 ft | 481 kts | 68° |
| 2026-05-04 18:23 | 39.48978 | -86.38026 | 36885 ft | 480 kts | 69° |
| 2026-05-04 18:23 | 39.51102 | -86.29831 | 36878 ft | 479 kts | 68° |
| 2026-05-04 18:24 | 39.53220 | -86.21645 | 36878 ft | 479 kts | 69° |
| 2026-05-04 18:24 | 39.55330 | -86.13468 | 36876 ft | 479 kts | 69° |
| 2026-05-04 18:25 | 39.57433 | -86.05288 | 36875 ft | 478 kts | 69° |
| 2026-05-04 18:25 | 39.59506 | -85.97165 | 36873 ft | 478 kts | 69° |
| 2026-05-04 18:26 | 39.61587 | -85.88975 | 36875 ft | 477 kts | 69° |
| 2026-05-04 18:26 | 39.63832 | -85.80892 | 36870 ft | 474 kts | 60° |
| 2026-05-04 18:27 | 39.66752 | -85.73242 | 36867 ft | 473 kts | 60° |
| 2026-05-04 18:27 | 39.69652 | -85.65574 | 36861 ft | 473 kts | 60° |
| 2026-05-04 18:28 | 39.72516 | -85.57946 | 36860 ft | 473 kts | 60° |
| 2026-05-04 18:28 | 39.75397 | -85.50245 | 36856 ft | 474 kts | 60° |
| 2026-05-04 18:29 | 39.78278 | -85.42544 | 36850 ft | 474 kts | 60° |
| 2026-05-04 18:29 | 39.81160 | -85.34827 | 36845 ft | 474 kts | 60° |
| 2026-05-04 18:30 | 39.85455 | -85.23306 | 36843 ft | 474 kts | 60° |
| 2026-05-04 18:31 | 39.88319 | -85.15578 | 36840 ft | 474 kts | 61° |
| 2026-05-04 18:31 | 39.91180 | -85.07839 | 36839 ft | 474 kts | 61° |
| 2026-05-04 18:32 | 39.94044 | -85.00092 | 36841 ft | 475 kts | 61° |
| 2026-05-04 18:32 | 39.96895 | -84.92326 | 36847 ft | 475 kts | 61° |
| 2026-05-04 18:33 | 39.99748 | -84.84573 | 36855 ft | 475 kts | 61° |
| 2026-05-04 18:33 | 40.02585 | -84.76842 | 36862 ft | 475 kts | 61° |
| 2026-05-04 18:34 | 40.05426 | -84.69062 | 36862 ft | 475 kts | 61° |
| 2026-05-04 18:34 | 40.08257 | -84.61273 | 36857 ft | 475 kts | 61° |
| 2026-05-04 18:35 | 40.11080 | -84.53485 | 36852 ft | 474 kts | 61° |
| 2026-05-04 18:35 | 40.13910 | -84.45707 | 36848 ft | 474 kts | 61° |
| 2026-05-04 18:36 | 40.16742 | -84.37924 | 36845 ft | 474 kts | 61° |
| 2026-05-04 18:36 | 40.19528 | -84.30173 | 36844 ft | 474 kts | 61° |
| 2026-05-04 18:37 | 40.22323 | -84.22370 | 36845 ft | 473 kts | 61° |
| 2026-05-04 18:37 | 40.25115 | -84.14565 | 36842 ft | 474 kts | 61° |
| 2026-05-04 18:38 | 40.27905 | -84.06743 | 36847 ft | 474 kts | 62° |
| 2026-05-04 18:38 | 40.31097 | -83.99248 | 36852 ft | 470 kts | 55° |
| 2026-05-04 18:39 | 40.34474 | -83.91967 | 36860 ft | 470 kts | 55° |
| 2026-05-04 18:39 | 40.37867 | -83.84630 | 36865 ft | 470 kts | 55° |
| 2026-05-04 18:40 | 40.41250 | -83.77288 | 36885 ft | 470 kts | 55° |
| 2026-05-04 18:40 | 40.44628 | -83.69906 | 36978 ft | 472 kts | 55° |
| 2026-05-04 18:41 | 40.47991 | -83.62528 | 36899 ft | 469 kts | 55° |
| 2026-05-04 18:41 | 40.51318 | -83.55225 | 36871 ft | 469 kts | 55° |
| 2026-05-04 18:42 | 40.54674 | -83.47853 | 36853 ft | 470 kts | 55° |
| 2026-05-04 18:42 | 40.58039 | -83.40460 | 36842 ft | 471 kts | 55° |
| 2026-05-04 18:43 | 40.61393 | -83.33056 | 36843 ft | 471 kts | 55° |
| 2026-05-04 18:43 | 40.64717 | -83.25700 | 36830 ft | 471 kts | 55° |
| 2026-05-04 18:44 | 40.68061 | -83.18290 | 36825 ft | 471 kts | 55° |
| 2026-05-04 18:44 | 40.71400 | -83.10871 | 36828 ft | 471 kts | 55° |
| 2026-05-04 18:45 | 40.74736 | -83.03431 | 36827 ft | 471 kts | 55° |
| 2026-05-04 18:45 | 40.78062 | -82.95995 | 36829 ft | 470 kts | 55° |
| 2026-05-04 18:46 | 40.81380 | -82.88552 | 36833 ft | 470 kts | 55° |
| 2026-05-04 18:46 | 40.84673 | -82.81158 | 36838 ft | 470 kts | 55° |
| 2026-05-04 18:47 | 40.87997 | -82.73705 | 36838 ft | 471 kts | 55° |
| 2026-05-04 18:47 | 40.91284 | -82.66288 | 36845 ft | 471 kts | 56° |
| 2026-05-04 18:48 | 40.94608 | -82.58748 | 36852 ft | 471 kts | 56° |
| 2026-05-04 18:48 | 40.97887 | -82.51305 | 36852 ft | 471 kts | 56° |
| 2026-05-04 18:49 | 41.01179 | -82.43824 | 36848 ft | 470 kts | 55° |
| 2026-05-04 18:49 | 41.04469 | -82.36334 | 36845 ft | 470 kts | 56° |
| 2026-05-04 18:50 | 41.07752 | -82.28841 | 36846 ft | 470 kts | 56° |
| 2026-05-04 18:50 | 41.11033 | -82.21335 | 36840 ft | 471 kts | 56° |
| 2026-05-04 18:51 | 41.14301 | -82.13824 | 36833 ft | 471 kts | 56° |
| 2026-05-04 18:51 | 41.17549 | -82.06337 | 36834 ft | 471 kts | 56° |
| 2026-05-04 18:52 | 41.20813 | -81.98805 | 36826 ft | 471 kts | 56° |
| 2026-05-04 18:52 | 41.24078 | -81.91275 | 36823 ft | 470 kts | 55° |
| 2026-05-04 18:53 | 41.27335 | -81.83728 | 36821 ft | 471 kts | 56° |
| 2026-05-04 18:53 | 41.30040 | -81.77440 | 36818 ft | 471 kts | 56° |
| 2026-05-04 18:54 | 41.33290 | -81.69877 | 36814 ft | 471 kts | 56° |
| 2026-05-04 18:54 | 41.36533 | -81.62294 | 36808 ft | 471 kts | 56° |
| 2026-05-04 18:55 | 41.39769 | -81.54702 | 36814 ft | 471 kts | 56° |
| 2026-05-04 18:55 | 41.44600 | -81.43355 | 36815 ft | 471 kts | 56° |
| 2026-05-04 18:56 | 41.47831 | -81.35751 | 36815 ft | 471 kts | 56° |
| 2026-05-04 18:56 | 41.51051 | -81.28151 | 36821 ft | 471 kts | 56° |
| 2026-05-04 18:57 | 41.54272 | -81.20539 | 36812 ft | 471 kts | 56° |
| 2026-05-04 18:57 | 41.57482 | -81.12918 | 36810 ft | 471 kts | 56° |
| 2026-05-04 18:58 | 41.60682 | -81.05281 | 36811 ft | 471 kts | 56° |
| 2026-05-04 18:58 | 41.63862 | -80.97692 | 36815 ft | 471 kts | 56° |
| 2026-05-04 18:59 | 41.67066 | -80.90042 | 36814 ft | 471 kts | 56° |
| 2026-05-04 18:59 | 41.70258 | -80.82381 | 36822 ft | 471 kts | 56° |
| 2026-05-04 19:00 | 41.73440 | -80.74710 | 36829 ft | 471 kts | 56° |
| 2026-05-04 19:00 | 41.76620 | -80.67032 | 36825 ft | 471 kts | 56° |
| 2026-05-04 19:01 | 41.79017 | -80.58846 | 36820 ft | 483 kts | 74° |
| 2026-05-04 19:01 | 41.79446 | -80.54368 | 36819 ft | 488 kts | 85° |
| 2026-05-04 19:01 | 41.79313 | -80.49818 | 36816 ft | 492 kts | 95° |
| 2026-05-04 19:02 | 41.78402 | -80.40712 | 36817 ft | 493 kts | 95° |
| 2026-05-04 19:02 | 41.77478 | -80.31606 | 36821 ft | 494 kts | 95° |
| 2026-05-04 19:03 | 41.76550 | -80.22489 | 36828 ft | 494 kts | 95° |
| 2026-05-04 19:03 | 41.75628 | -80.13419 | 36835 ft | 494 kts | 95° |
| 2026-05-04 19:04 | 41.74689 | -80.04288 | 36834 ft | 495 kts | 95° |
| 2026-05-04 19:04 | 41.73741 | -79.95157 | 36831 ft | 495 kts | 95° |
| 2026-05-04 19:05 | 41.72781 | -79.86034 | 36830 ft | 495 kts | 95° |
| 2026-05-04 19:05 | 41.71816 | -79.76922 | 36831 ft | 495 kts | 95° |
| 2026-05-04 19:06 | 41.70861 | -79.67858 | 36834 ft | 495 kts | 95° |
| 2026-05-04 19:06 | 41.69886 | -79.58737 | 36839 ft | 495 kts | 95° |
| 2026-05-04 19:07 | 41.68897 | -79.49614 | 36847 ft | 495 kts | 96° |
| 2026-05-04 19:07 | 41.67904 | -79.40503 | 36849 ft | 495 kts | 96° |
| 2026-05-04 19:08 | 41.66904 | -79.31410 | 36849 ft | 494 kts | 96° |
| 2026-05-04 19:08 | 41.65899 | -79.22327 | 36849 ft | 494 kts | 96° |
| 2026-05-04 19:09 | 41.64899 | -79.13306 | 36848 ft | 494 kts | 96° |
| 2026-05-04 19:09 | 41.63885 | -79.04227 | 36851 ft | 494 kts | 96° |
| 2026-05-04 19:10 | 41.62860 | -78.95143 | 36851 ft | 493 kts | 96° |
| 2026-05-04 19:10 | 41.61823 | -78.86080 | 36852 ft | 493 kts | 96° |
| 2026-05-04 19:11 | 41.60778 | -78.77019 | 36848 ft | 493 kts | 96° |
| 2026-05-04 19:11 | 41.59740 | -78.68072 | 36841 ft | 493 kts | 96° |
| 2026-05-04 19:12 | 41.58163 | -78.54492 | 36840 ft | 493 kts | 96° |
| 2026-05-04 19:13 | 41.57095 | -78.45439 | 36842 ft | 494 kts | 96° |
| 2026-05-04 19:13 | 41.56023 | -78.36376 | 36841 ft | 494 kts | 96° |
| 2026-05-04 19:14 | 41.54953 | -78.27359 | 36847 ft | 495 kts | 96° |
| 2026-05-04 19:14 | 41.53864 | -78.18289 | 36850 ft | 495 kts | 97° |
| 2026-05-04 19:15 | 41.52803 | -78.09530 | 36852 ft | 495 kts | 97° |
| 2026-05-04 19:15 | 41.51691 | -78.00458 | 36860 ft | 496 kts | 97° |
| 2026-05-04 19:16 | 41.50543 | -77.91388 | 36865 ft | 496 kts | 98° |
| 2026-05-04 19:16 | 41.49255 | -77.82340 | 36866 ft | 497 kts | 98° |
| 2026-05-04 19:17 | 41.47936 | -77.73352 | 36869 ft | 497 kts | 99° |
| 2026-05-04 19:17 | 41.46627 | -77.64311 | 36868 ft | 497 kts | 99° |
| 2026-05-04 19:18 | 41.45330 | -77.55241 | 36868 ft | 497 kts | 99° |
| 2026-05-04 19:18 | 41.44040 | -77.46192 | 36870 ft | 497 kts | 99° |
| 2026-05-04 19:19 | 41.42730 | -77.37143 | 36872 ft | 497 kts | 99° |
| 2026-05-04 19:19 | 41.41400 | -77.28100 | 36872 ft | 497 kts | 99° |
| 2026-05-04 19:20 | 41.40077 | -77.19131 | 36872 ft | 497 kts | 99° |
| 2026-05-04 19:20 | 41.38753 | -77.10117 | 36872 ft | 496 kts | 99° |
| 2026-05-04 19:21 | 41.37410 | -77.01100 | 36871 ft | 496 kts | 99° |
| 2026-05-04 19:21 | 41.36058 | -76.92088 | 36867 ft | 497 kts | 100° |
| 2026-05-04 19:22 | 41.34696 | -76.83067 | 36872 ft | 497 kts | 100° |
| 2026-05-04 19:22 | 41.34002 | -76.78566 | 36596 ft | 497 kts | 102° |
| 2026-05-04 19:22 | 41.32988 | -76.74138 | 35787 ft | 500 kts | 109° |
| 2026-05-04 19:22 | 41.31811 | -76.69774 | 34883 ft | 503 kts | 108° |
| 2026-05-04 19:23 | 41.30627 | -76.65380 | 34054 ft | 505 kts | 108° |
| 2026-05-04 19:23 | 41.29441 | -76.60973 | 33129 ft | 508 kts | 108° |
| 2026-05-04 19:23 | 41.28266 | -76.56594 | 32152 ft | 511 kts | 108° |
| 2026-05-04 19:23 | 41.27071 | -76.52141 | 31149 ft | 512 kts | 108° |
| 2026-05-04 19:24 | 41.25877 | -76.47688 | 30215 ft | 511 kts | 109° |
| 2026-05-04 19:24 | 41.24679 | -76.43234 | 29065 ft | 514 kts | 109° |
| 2026-05-04 19:24 | 41.23473 | -76.38765 | 28119 ft | 511 kts | 109° |
| 2026-05-04 19:24 | 41.22288 | -76.34376 | 27551 ft | 501 kts | 109° |
| 2026-05-04 19:25 | 41.21116 | -76.30036 | 26834 ft | 496 kts | 109° |
| 2026-05-04 19:25 | 41.19955 | -76.25756 | 26158 ft | 490 kts | 109° |
| 2026-05-04 19:25 | 41.18803 | -76.21526 | 25477 ft | 484 kts | 109° |
| 2026-05-04 19:25 | 41.17664 | -76.17345 | 24807 ft | 479 kts | 109° |
| 2026-05-04 19:26 | 41.16537 | -76.13207 | 24153 ft | 474 kts | 109° |
| 2026-05-04 19:26 | 41.15423 | -76.09122 | 23495 ft | 469 kts | 109° |
| 2026-05-04 19:26 | 41.14317 | -76.05078 | 22850 ft | 464 kts | 109° |
| 2026-05-04 19:26 | 41.13236 | -76.01130 | 22230 ft | 459 kts | 109° |
| 2026-05-04 19:27 | 41.12153 | -75.97180 | 21626 ft | 453 kts | 109° |
| 2026-05-04 19:27 | 41.11082 | -75.93285 | 21044 ft | 447 kts | 109° |
| 2026-05-04 19:27 | 41.10021 | -75.89435 | 20472 ft | 443 kts | 110° |
| 2026-05-04 19:27 | 41.08969 | -75.85619 | 19921 ft | 439 kts | 110° |
| 2026-05-04 19:28 | 41.07924 | -75.81837 | 19368 ft | 435 kts | 110° |
| 2026-05-04 19:28 | 41.06887 | -75.78094 | 18837 ft | 432 kts | 110° |
| 2026-05-04 19:28 | 41.05852 | -75.74368 | 18280 ft | 430 kts | 110° |
| 2026-05-04 19:28 | 41.04821 | -75.70658 | 17723 ft | 427 kts | 110° |
| 2026-05-04 19:29 | 41.03796 | -75.66971 | 17141 ft | 425 kts | 110° |
| 2026-05-04 19:29 | 41.02779 | -75.63309 | 16565 ft | 422 kts | 110° |
| 2026-05-04 19:29 | 41.01767 | -75.59671 | 15971 ft | 420 kts | 110° |
| 2026-05-04 19:29 | 41.00760 | -75.56056 | 15383 ft | 417 kts | 110° |
| 2026-05-04 19:30 | 40.99759 | -75.52470 | 14782 ft | 414 kts | 111° |
| 2026-05-04 19:30 | 40.98763 | -75.48908 | 14171 ft | 411 kts | 111° |
| 2026-05-04 19:30 | 40.97776 | -75.45381 | 13567 ft | 407 kts | 111° |
| 2026-05-04 19:30 | 40.96794 | -75.41884 | 13027 ft | 402 kts | 111° |
| 2026-05-04 19:31 | 40.95824 | -75.38435 | 12452 ft | 397 kts | 111° |
| 2026-05-04 19:31 | 40.94876 | -75.35065 | 11856 ft | 394 kts | 111° |
| 2026-05-04 19:31 | 40.93932 | -75.31701 | 11252 ft | 388 kts | 111° |
| 2026-05-04 19:31 | 40.92993 | -75.28363 | 10709 ft | 384 kts | 112° |
| 2026-05-04 19:32 | 40.92078 | -75.25120 | 10584 ft | 368 kts | 112° |
| 2026-05-04 19:32 | 40.91201 | -75.22013 | 10449 ft | 354 kts | 112° |
| 2026-05-04 19:32 | 40.90355 | -75.19021 | 10322 ft | 340 kts | 112° |
| 2026-05-04 19:32 | 40.89539 | -75.16143 | 10200 ft | 329 kts | 112° |
| 2026-05-04 19:33 | 40.88748 | -75.13354 | 10077 ft | 321 kts | 112° |
| 2026-05-04 19:33 | 40.87972 | -75.10621 | 9759 ft | 316 kts | 113° |
| 2026-05-04 19:33 | 40.87201 | -75.07898 | 9445 ft | 315 kts | 113° |
| 2026-05-04 19:33 | 40.86441 | -75.05207 | 9155 ft | 311 kts | 113° |
| 2026-05-04 19:34 | 40.85688 | -75.02534 | 8826 ft | 309 kts | 113° |
| 2026-05-04 19:34 | 40.84946 | -74.99905 | 8334 ft | 302 kts | 113° |
| 2026-05-04 19:34 | 40.84227 | -74.97364 | 7773 ft | 298 kts | 113° |
| 2026-05-04 19:34 | 40.83501 | -74.94808 | 7219 ft | 297 kts | 113° |
| 2026-05-04 19:35 | 40.82778 | -74.92259 | 7005 ft | 295 kts | 111° |
| 2026-05-04 19:35 | 40.82478 | -74.89579 | 6989 ft | 299 kts | 88° |
| 2026-05-04 19:35 | 40.82815 | -74.86861 | 6861 ft | 300 kts | 79° |
| 2026-05-04 19:35 | 40.83239 | -74.84159 | 6572 ft | 300 kts | 78° |
| 2026-05-04 19:36 | 40.83668 | -74.81484 | 6295 ft | 297 kts | 79° |
| 2026-05-04 19:36 | 40.84102 | -74.78824 | 6170 ft | 297 kts | 78° |
| 2026-05-04 19:36 | 40.84535 | -74.76157 | 6041 ft | 297 kts | 79° |
| 2026-05-04 19:36 | 40.84963 | -74.73525 | 5914 ft | 297 kts | 79° |
| 2026-05-04 19:37 | 40.85393 | -74.70859 | 5792 ft | 296 kts | 79° |
| 2026-05-04 19:37 | 40.85816 | -74.68202 | 5661 ft | 295 kts | 79° |
| 2026-05-04 19:37 | 40.86236 | -74.65551 | 5536 ft | 295 kts | 79° |
| 2026-05-04 19:37 | 40.86657 | -74.62906 | 5414 ft | 294 kts | 78° |
| 2026-05-04 19:38 | 40.87077 | -74.60257 | 5294 ft | 294 kts | 79° |
| 2026-05-04 19:38 | 40.87491 | -74.57617 | 5164 ft | 293 kts | 79° |
| 2026-05-04 19:38 | 40.87905 | -74.54987 | 5035 ft | 291 kts | 79° |
| 2026-05-04 19:38 | 40.88317 | -74.52368 | 4919 ft | 291 kts | 79° |
| 2026-05-04 19:39 | 40.88727 | -74.49751 | 4784 ft | 290 kts | 80° |
| 2026-05-04 19:39 | 40.89134 | -74.47144 | 4662 ft | 289 kts | 79° |
| 2026-05-04 19:39 | 40.89544 | -74.44537 | 4532 ft | 289 kts | 79° |
| 2026-05-04 19:39 | 40.89955 | -74.41935 | 4404 ft | 290 kts | 79° |
| 2026-05-04 19:40 | 40.90362 | -74.39332 | 4282 ft | 289 kts | 80° |
| 2026-05-04 19:40 | 40.90769 | -74.36736 | 4150 ft | 289 kts | 80° |
| 2026-05-04 19:40 | 40.91168 | -74.34205 | 4027 ft | 288 kts | 80° |
| 2026-05-04 19:40 | 40.91562 | -74.31670 | 4004 ft | 288 kts | 81° |
| 2026-05-04 19:41 | 40.91959 | -74.29103 | 3993 ft | 278 kts | 80° |
| 2026-05-04 19:41 | 40.92336 | -74.26672 | 4004 ft | 264 kts | 80° |
| 2026-05-04 19:41 | 40.92696 | -74.24352 | 4003 ft | 251 kts | 81° |
| 2026-05-04 19:41 | 40.93044 | -74.22118 | 4008 ft | 247 kts | 81° |
| 2026-05-04 19:42 | 40.93380 | -74.19893 | 4007 ft | 246 kts | 83° |
| 2026-05-04 19:42 | 40.93382 | -74.17657 | 3938 ft | 242 kts | 104° |
| 2026-05-04 19:42 | 40.92881 | -74.15587 | 3688 ft | 234 kts | 122° |
| 2026-05-04 19:42 | 40.91980 | -74.13880 | 3437 ft | 226 kts | 140° |
| 2026-05-04 19:43 | 40.90787 | -74.12603 | 3152 ft | 218 kts | 156° |
| 2026-05-04 19:43 | 40.89501 | -74.11645 | 3022 ft | 216 kts | 156° |
| 2026-05-04 19:43 | 40.88192 | -74.10667 | 3000 ft | 217 kts | 156° |
| 2026-05-04 19:43 | 40.86881 | -74.09689 | 3003 ft | 216 kts | 156° |
| 2026-05-04 19:44 | 40.85573 | -74.08710 | 3004 ft | 216 kts | 157° |
| 2026-05-04 19:44 | 40.84189 | -74.08020 | 2941 ft | 209 kts | 176° |
| 2026-05-04 19:44 | 40.82769 | -74.08030 | 2761 ft | 203 kts | 196° |
| 2026-05-04 19:44 | 40.81475 | -74.08676 | 2534 ft | 198 kts | 208° |
| 2026-05-04 19:45 | 40.80251 | -74.09459 | 2278 ft | 190 kts | 208° |
| 2026-05-04 19:45 | 40.79108 | -74.10190 | 2057 ft | 175 kts | 207° |
| 2026-05-04 19:45 | 40.78062 | -74.10857 | 1814 ft | 158 kts | 208° |
| 2026-05-04 19:45 | 40.77145 | -74.11442 | 1624 ft | 139 kts | 208° |
| 2026-05-04 19:46 | 40.76278 | -74.11996 | 1438 ft | 136 kts | 208° |
| 2026-05-04 19:46 | 40.75447 | -74.12526 | 1262 ft | 133 kts | 208° |
| 2026-05-04 19:46 | 40.74620 | -74.13054 | 1089 ft | 131 kts | 208° |
| 2026-05-04 19:46 | 40.73805 | -74.13574 | 917 ft | 131 kts | 208° |
| 2026-05-04 19:47 | 40.72986 | -74.14095 | 743 ft | 131 kts | 208° |
| 2026-05-04 19:47 | 40.72165 | -74.14619 | 567 ft | 131 kts | 208° |
| 2026-05-04 19:47 | 40.71345 | -74.15141 | 400 ft | 131 kts | 207° |
| 2026-05-04 19:47 | 40.70516 | -74.15669 | 224 ft | 134 kts | 206° |
| 2026-05-04 19:48 | 40.69683 | -74.16196 | 58 ft | 133 kts | 206° |
| 2026-05-04 19:48 | 40.68904 | -74.16698 | 23 ft | 106 kts | 206° |
| 2026-05-04 19:48 | 40.68406 | -74.17018 | 22 ft | 34 kts | 206° |
| 2026-05-04 19:48 | 40.68268 | -74.17176 | 23 ft | 25 kts | 232° |
| 2026-05-04 19:49 | 40.68185 | -74.17326 | 24 ft | 17 kts | 237° |
| 2026-05-04 19:49 | 40.68144 | -74.17427 | 21 ft | 11 kts | 264° |
| 2026-05-04 19:49 | 40.68178 | -74.17534 | 23 ft | 14 kts | 296° |
| 2026-05-04 19:49 | 40.68226 | -74.17653 | 22 ft | 12 kts | 314° |
| 2026-05-04 19:50 | 40.68295 | -74.17709 | 22 ft | 12 kts | 306° |
| 2026-05-04 19:50 | 40.68250 | -74.17773 | 24 ft | 12 kts | 204° |
| 2026-05-04 19:50 | 40.68188 | -74.17830 | 22 ft | 10 kts | 245° |
| 2026-05-04 19:50 | 40.68212 | -74.17932 | 22 ft | 13 kts | 294° |
| 2026-05-04 19:51 | 40.68235 | -74.18059 | 22 ft | 15 kts | 274° |
| 2026-05-04 19:51 | 40.68233 | -74.18206 | 22 ft | 17 kts | 269° |
| 2026-05-04 19:51 | 40.68241 | -74.18356 | 22 ft | 10 kts | 275° |
| 2026-05-04 19:51 | 40.68246 | -74.18411 | 22 ft | 2 kts | 283° |
| 2026-05-04 19:52 | 40.68259 | -74.18416 | 22 ft | 2 kts | 347° |
| 2026-05-04 19:52 | 40.68273 | -74.18414 | 22 ft | 2 kts | 8° |
| 2026-05-04 19:52 | 40.68288 | -74.18412 | 22 ft | 3 kts | 4° |
| 2026-05-04 19:52 | 40.68303 | -74.18411 | 22 ft | 0 kts | 5° |